DNKN

Mallam Aminu International Airport

Kano, Nigeria
TAF DNKN 141530Z 1418/1524 07010KT CAVOK TEMPO 1420/1502 VRB02KT
Issued Valid From Valid To
Dec-14 @ 15:30 UTC
(2 hours ago)
Dec-14 @ 18:00 UTC
(in 9 minutes)
Dec-16 @ 00:00 UTC
(-1 days ago)
Dec-14 @ 18:00 to Dec-16 @ 00:00
TAF DNKN 141530Z 1418/1524 07010KT CAVOK
Wind Visibility Clouds Conditions
70° at 10 knots 10,000+ meters
  • No significant clouds
Temporary Dec-14 @ 20:00 to Dec-15 @ 02:00
TEMPO 1420/1502 VRB02KT
Wind
Variable at 2 knots
TAF DNKN 141530Z 1418/1524 07010KT CAVOK TEMPO 1420/1502 VRB02KT
Issued Dec-14 @ 15:30 UTC
(2 hours ago)
Valid From Dec-14 @ 18:00 UTC
(in 9 minutes)
Valid To Dec-16 @ 00:00 UTC
(-1 days ago)
Dec-14 @ 18:00 - Dec-16 @ 00:00
Wind Visibility
70° at 10 knots 10,000+ meters
Clouds
  • No significant clouds
Conditions
Temporary Dec-14 @ 20:00 - Dec-15 @ 02:00
Wind
Variable at 2 knots